createdAt,value
2023-04-16T00:00:48.951Z,1.30
2023-04-16T00:03:16.809Z,1.42
2023-04-16T00:05:44.596Z,1.33
2023-04-16T00:08:12.162Z,1.53
2023-04-16T00:10:39.793Z,1.60
2023-04-16T00:13:07.191Z,1.90
2023-04-16T00:15:34.658Z,1.90
2023-04-16T00:18:03.399Z,2.03
2023-04-16T00:20:30.880Z,2.30
2023-04-16T00:22:58.655Z,2.47
2023-04-16T00:25:26.088Z,2.30
2023-04-16T00:27:53.463Z,2.83
2023-04-16T00:30:21.248Z,2.40
2023-04-16T00:32:48.755Z,2.50
2023-04-16T00:35:16.320Z,2.58
2023-04-16T00:37:43.818Z,2.65
2023-04-16T00:40:11.508Z,2.72
2023-04-16T00:42:38.982Z,2.20
2023-04-16T00:45:06.615Z,2.50
2023-04-16T00:47:34.257Z,2.58
2023-04-16T00:50:01.717Z,2.58
2023-04-16T00:52:29.524Z,2.70
2023-04-16T00:54:57.061Z,3.03
2023-04-16T00:57:24.630Z,4.27
2023-04-16T00:59:52.124Z,2.20
2023-04-16T01:02:19.534Z,2.33
2023-04-16T01:04:46.996Z,1.83
2023-04-16T01:07:14.422Z,1.80
2023-04-16T01:09:41.949Z,1.87
2023-04-16T01:12:09.551Z,2.10
2023-04-16T01:14:37.431Z,1.70
2023-04-16T01:17:04.990Z,1.80
2023-04-16T01:19:32.652Z,1.90
2023-04-16T01:22:00.326Z,1.73
2023-04-16T01:24:27.754Z,1.92
2023-04-16T01:26:55.233Z,1.92
2023-04-16T01:29:22.857Z,2.13
2023-04-16T01:31:50.587Z,2.00
2023-04-16T01:34:18.091Z,2.20
2023-04-16T01:36:45.497Z,2.33
2023-04-16T01:39:15.762Z,2.10
2023-04-16T01:41:43.801Z,2.00
2023-04-16T01:44:11.369Z,2.50
2023-04-16T01:46:38.981Z,2.10
2023-04-16T01:49:07.465Z,2.08
2023-04-16T01:51:35.148Z,2.50
2023-04-16T01:54:02.736Z,2.10
2023-04-16T01:56:30.314Z,1.60
2023-04-16T01:58:57.791Z,1.60
2023-04-16T02:01:25.412Z,1.60
2023-04-16T02:03:53.602Z,1.80
2023-04-16T02:06:21.096Z,1.75
2023-04-16T02:08:48.567Z,2.10
2023-04-16T02:11:16.312Z,1.87
2023-04-16T02:13:43.804Z,2.38
2023-04-16T02:16:11.542Z,2.42
2023-04-16T02:18:39.010Z,1.88
2023-04-16T02:21:07.802Z,2.45
2023-04-16T02:23:35.244Z,2.00
2023-04-16T02:26:03.587Z,2.15
2023-04-16T02:28:31.208Z,1.92
2023-04-16T02:30:59.769Z,2.35
2023-04-16T02:33:27.312Z,2.00
2023-04-16T02:35:54.833Z,2.07
2023-04-16T02:38:22.285Z,2.17
2023-04-16T02:40:50.209Z,2.28
2023-04-16T02:43:17.735Z,2.63
2023-04-16T02:45:45.239Z,2.15
2023-04-16T02:48:13.413Z,2.10
2023-04-16T02:50:40.957Z,2.17
2023-04-16T02:53:10.548Z,1.90
2023-04-16T02:55:38.020Z,2.22
2023-04-16T02:58:05.568Z,1.98
2023-04-16T03:00:33.232Z,1.97
2023-04-16T03:03:00.779Z,1.92
2023-04-16T03:05:28.201Z,1.92
2023-04-16T03:07:57.304Z,2.10
2023-04-16T03:10:24.748Z,1.85
2023-04-16T03:12:52.204Z,2.07
2023-04-16T03:15:20.088Z,2.13
2023-04-16T03:17:47.659Z,2.05
2023-04-16T03:20:17.028Z,2.25
2023-04-16T03:22:44.484Z,1.75
2023-04-16T03:25:12.063Z,1.70
2023-04-16T03:27:42.683Z,1.90
2023-04-16T03:30:13.111Z,1.95
2023-04-16T03:32:40.738Z,1.80
2023-04-16T03:35:08.523Z,1.50
2023-04-16T03:37:36.173Z,1.60
2023-04-16T03:40:05.841Z,1.50
2023-04-16T03:42:33.709Z,1.70
2023-04-16T03:45:01.204Z,1.58
2023-04-16T03:47:28.724Z,1.20
2023-04-16T03:49:56.189Z,1.33
2023-04-16T03:52:23.600Z,1.58
2023-04-16T03:54:51.012Z,1.50
2023-04-16T03:57:18.586Z,1.42
2023-04-16T03:59:46.072Z,1.38
2023-04-16T04:02:14.221Z,1.43
2023-04-16T04:04:41.829Z,1.20
2023-04-16T04:07:09.448Z,1.23
2023-04-16T04:09:36.942Z,1.17
2023-04-16T04:12:04.440Z,1.15
2023-04-16T04:14:31.957Z,1.30
2023-04-16T04:16:59.401Z,1.33
2023-04-16T04:19:26.779Z,1.38
2023-04-16T04:21:54.398Z,1.42
2023-04-16T04:24:21.806Z,1.13
2023-04-16T04:26:49.239Z,1.30
2023-04-16T04:29:16.680Z,1.10
2023-04-16T04:31:44.175Z,1.20
2023-04-16T04:34:11.602Z,1.10
2023-04-16T04:36:39.068Z,1.30
2023-04-16T04:39:06.559Z,1.27
2023-04-16T04:41:34.452Z,1.20
2023-04-16T04:44:01.858Z,1.45
2023-04-16T04:46:29.348Z,1.50
2023-04-16T04:48:56.829Z,1.70
2023-04-16T04:51:24.271Z,1.50
2023-04-16T04:53:51.953Z,1.60
2023-04-16T04:56:19.455Z,1.52
2023-04-16T04:58:48.176Z,1.23
2023-04-16T05:01:15.600Z,1.60
2023-04-16T05:03:43.193Z,1.40
2023-04-16T05:06:10.842Z,1.77
2023-04-16T05:08:38.229Z,1.83
2023-04-16T05:11:06.117Z,1.67
2023-04-16T05:13:33.517Z,2.10
2023-04-16T05:16:01.051Z,2.30
2023-04-16T05:18:28.504Z,4.53
2023-04-16T05:20:55.980Z,10.43
2023-04-16T05:23:23.413Z,11.15
2023-04-16T05:25:50.914Z,10.80
2023-04-16T05:28:18.308Z,9.20
2023-04-16T05:30:46.119Z,11.90
2023-04-16T05:33:13.660Z,12.43
2023-04-16T05:35:43.943Z,12.57
2023-04-16T05:38:11.516Z,8.52
2023-04-16T05:40:38.945Z,8.97
2023-04-16T05:43:06.383Z,10.52
2023-04-16T05:45:39.726Z,7.70
2023-04-16T05:48:09.130Z,7.00
2023-04-16T05:50:37.020Z,7.65
2023-04-16T05:53:09.285Z,6.60
2023-04-16T05:55:36.949Z,5.15
2023-04-16T05:58:05.122Z,5.47
2023-04-16T06:00:33.280Z,5.53
2023-04-16T06:03:00.940Z,4.32
2023-04-16T06:05:28.729Z,4.20
2023-04-16T06:07:56.277Z,4.70
2023-04-16T06:10:23.845Z,5.45
2023-04-16T06:12:51.301Z,6.07
2023-04-16T06:15:18.733Z,5.85
2023-04-16T06:17:46.205Z,4.83
2023-04-16T06:20:13.851Z,4.25
2023-04-16T06:22:41.613Z,4.45
2023-04-16T06:25:09.402Z,6.20
2023-04-16T06:27:37.217Z,6.32
2023-04-16T06:30:04.853Z,5.10
2023-04-16T06:32:32.410Z,5.43
2023-04-16T06:34:59.825Z,4.95
2023-04-16T06:37:27.275Z,2.70
2023-04-16T06:39:54.805Z,2.67
2023-04-16T06:42:22.262Z,3.00
2023-04-16T06:44:49.779Z,3.25
2023-04-16T06:47:17.241Z,4.03
2023-04-16T06:49:44.721Z,3.85
2023-04-16T06:52:12.550Z,3.42
2023-04-16T06:54:40.290Z,3.67
2023-04-16T06:57:07.718Z,3.78
2023-04-16T06:59:35.129Z,4.25
2023-04-16T07:02:02.734Z,4.28
2023-04-16T07:04:30.225Z,4.03
2023-04-16T07:06:57.685Z,4.13
2023-04-16T07:09:26.789Z,4.30
2023-04-16T07:11:54.629Z,3.92
2023-04-16T07:14:22.110Z,5.20
2023-04-16T07:16:49.617Z,4.28
2023-04-16T07:19:17.115Z,3.77
2023-04-16T07:21:44.984Z,2.53
2023-04-16T07:24:12.441Z,3.10
2023-04-16T07:26:40.007Z,3.75
2023-04-16T07:29:07.800Z,3.10
2023-04-16T07:31:35.566Z,2.30
2023-04-16T07:34:03.140Z,2.10
2023-04-16T07:36:31.909Z,2.63
2023-04-16T07:38:59.392Z,2.53
2023-04-16T07:41:27.181Z,2.08
2023-04-16T07:43:55.085Z,1.87
2023-04-16T07:46:22.571Z,1.73
2023-04-16T07:48:50.050Z,2.20
2023-04-16T07:51:17.463Z,2.47
2023-04-16T07:53:45.215Z,1.88
2023-04-16T07:56:12.753Z,1.73
2023-04-16T07:58:40.339Z,1.90
2023-04-16T08:01:07.881Z,2.25
2023-04-16T08:03:35.807Z,2.67
2023-04-16T08:06:03.330Z,2.45
2023-04-16T08:08:30.934Z,2.50
2023-04-16T08:10:58.532Z,1.98
2023-04-16T08:13:26.134Z,2.58
2023-04-16T08:15:53.650Z,2.58
2023-04-16T08:18:21.253Z,2.33
2023-04-16T08:20:48.680Z,2.20
2023-04-16T08:23:16.348Z,2.30
2023-04-16T08:25:43.729Z,3.47
2023-04-16T08:28:11.169Z,2.80
2023-04-16T08:30:38.577Z,2.40
2023-04-16T08:33:06.213Z,2.30
2023-04-16T08:35:33.662Z,2.70
2023-04-16T08:38:02.617Z,2.67
2023-04-16T08:40:30.679Z,2.55
2023-04-16T08:42:59.458Z,2.38
2023-04-16T08:45:27.227Z,2.30
2023-04-16T08:47:54.776Z,2.65
2023-04-16T08:50:26.171Z,2.00
2023-04-16T08:53:00.552Z,2.25
2023-04-16T08:55:40.068Z,2.28
2023-04-16T08:58:09.655Z,2.07
2023-04-16T09:00:37.157Z,2.20
2023-04-16T09:03:04.851Z,2.15
2023-04-16T09:05:32.584Z,2.22
2023-04-16T09:07:59.969Z,4.00
2023-04-16T09:10:27.725Z,2.23
2023-04-16T09:12:58.028Z,2.15
2023-04-16T09:15:25.823Z,2.22
2023-04-16T09:17:53.479Z,2.42
2023-04-16T09:20:21.222Z,2.35
2023-04-16T09:22:48.747Z,2.33
2023-04-16T09:25:16.302Z,1.80
2023-04-16T09:27:43.783Z,2.17
2023-04-16T09:30:23.568Z,1.90
2023-04-16T09:32:51.636Z,2.10
2023-04-16T09:35:21.999Z,1.70
2023-04-16T09:37:56.861Z,2.15
2023-04-16T09:40:27.607Z,1.60
2023-04-16T09:42:57.786Z,1.17
2023-04-16T09:45:25.352Z,1.50
2023-04-16T09:47:53.073Z,2.10
2023-04-16T09:50:21.085Z,1.92
2023-04-16T09:52:49.804Z,1.55
2023-04-16T09:55:19.170Z,1.83
2023-04-16T09:57:46.853Z,1.58
2023-04-16T10:00:14.769Z,1.47
2023-04-16T10:02:42.640Z,1.25
2023-04-16T10:05:18.682Z,1.70
2023-04-16T10:07:46.715Z,1.48
2023-04-16T10:10:14.204Z,1.70
2023-04-16T10:12:41.836Z,1.70
2023-04-16T10:15:09.446Z,1.70
2023-04-16T10:17:37.023Z,1.95
2023-04-16T10:20:04.724Z,1.95
2023-04-16T10:22:32.266Z,2.08
2023-04-16T10:25:00.061Z,1.40
2023-04-16T10:27:27.530Z,1.92
2023-04-16T10:29:54.962Z,1.70
2023-04-16T10:32:22.490Z,1.60
2023-04-16T10:34:49.914Z,1.83
2023-04-16T10:37:18.640Z,1.73
2023-04-16T10:39:46.124Z,2.50
2023-04-16T10:42:14.184Z,1.95
2023-04-16T10:44:44.419Z,1.88
2023-04-16T10:47:13.196Z,2.60
2023-04-16T10:49:41.106Z,2.00
2023-04-16T10:52:08.753Z,2.70
2023-04-16T10:54:36.373Z,2.45
2023-04-16T10:57:04.672Z,2.08
2023-04-16T10:59:33.698Z,1.98
2023-04-16T11:02:02.014Z,1.73
2023-04-16T11:04:30.645Z,1.85
2023-04-16T11:07:10.574Z,2.28
2023-04-16T11:09:54.654Z,6.03
2023-04-16T11:12:22.942Z,3.22
2023-04-16T11:14:53.833Z,3.20
2023-04-16T11:17:21.660Z,2.92
2023-04-16T11:19:49.246Z,2.13
2023-04-16T11:22:17.598Z,2.15
2023-04-16T11:24:45.981Z,2.17
2023-04-16T11:27:16.652Z,2.00
2023-04-16T11:29:45.701Z,2.30
2023-04-16T11:32:22.219Z,2.20
2023-04-16T11:34:49.706Z,2.33
2023-04-16T11:37:20.477Z,2.30
2023-04-16T11:39:51.532Z,2.70
2023-04-16T11:42:26.725Z,2.38
2023-04-16T11:44:54.970Z,1.60
2023-04-16T11:47:23.144Z,1.70
2023-04-16T11:49:51.534Z,2.00
2023-04-16T11:52:31.766Z,2.50
2023-04-16T11:54:59.787Z,2.85
2023-04-16T11:57:27.224Z,2.13
2023-04-16T12:00:02.229Z,2.60
2023-04-16T12:02:37.225Z,2.20
2023-04-16T12:05:05.463Z,2.43
2023-04-16T12:07:33.097Z,1.80
2023-04-16T12:10:07.913Z,2.38
2023-04-16T12:12:35.815Z,2.28
2023-04-16T12:15:04.108Z,3.90
2023-04-16T12:17:32.755Z,2.50
2023-04-16T12:20:00.909Z,2.88
2023-04-16T12:22:29.133Z,2.33
2023-04-16T12:24:57.283Z,2.17
2023-04-16T12:27:28.634Z,2.58
2023-04-16T12:30:07.229Z,2.10
2023-04-16T12:32:34.917Z,2.35
2023-04-16T12:35:02.498Z,2.70
2023-04-16T12:37:30.032Z,2.45
2023-04-16T12:39:57.515Z,2.28
2023-04-16T12:42:25.035Z,2.63
2023-04-16T12:44:52.380Z,2.53
2023-04-16T12:47:19.815Z,2.80
2023-04-16T12:49:47.414Z,2.80
2023-04-16T12:52:14.908Z,4.78
2023-04-16T12:54:42.445Z,3.73
2023-04-16T12:57:10.022Z,3.20
2023-04-16T12:59:37.455Z,3.05
2023-04-16T13:02:05.848Z,2.95
2023-04-16T13:04:33.475Z,3.08
2023-04-16T13:07:01.265Z,3.80
2023-04-16T13:09:28.780Z,3.80
2023-04-16T13:11:56.389Z,4.40
2023-04-16T13:14:24.162Z,4.13
2023-04-16T13:16:51.689Z,4.05
2023-04-16T13:19:19.258Z,3.70
2023-04-16T13:21:46.804Z,5.03
2023-04-16T13:24:14.805Z,6.85
2023-04-16T13:26:43.424Z,6.60
2023-04-16T13:29:11.579Z,3.70
2023-04-16T13:31:39.656Z,6.30
2023-04-16T13:34:07.414Z,22.77
2023-04-16T13:36:35.345Z,20.30
2023-04-16T13:39:05.359Z,12.15
2023-04-16T13:41:32.853Z,13.57
2023-04-16T13:44:00.762Z,9.53
2023-04-16T13:46:29.104Z,9.15
2023-04-16T13:48:56.680Z,10.18
2023-04-16T13:51:24.428Z,8.70
2023-04-16T13:53:51.906Z,7.30
2023-04-16T13:56:19.527Z,9.33
2023-04-16T13:58:47.475Z,12.43
2023-04-16T14:01:15.022Z,25.13
2023-04-16T14:03:43.144Z,21.98
2023-04-16T14:06:11.037Z,36.10
2023-04-16T14:08:38.625Z,41.83
2023-04-16T14:11:06.506Z,27.45
2023-04-16T14:13:34.322Z,16.13
2023-04-16T14:16:02.998Z,27.92
2023-04-16T14:18:30.684Z,14.65
2023-04-16T14:20:58.812Z,16.23
2023-04-16T14:23:26.638Z,9.43
2023-04-16T14:25:54.101Z,30.27
2023-04-16T14:28:21.716Z,5.38
2023-04-16T14:30:49.627Z,10.38
2023-04-16T14:33:17.349Z,19.50
2023-04-16T14:35:45.031Z,10.45
2023-04-16T14:38:12.642Z,5.00
2023-04-16T14:40:40.069Z,10.30
2023-04-16T14:43:07.886Z,15.75
2023-04-16T14:45:38.324Z,9.67
2023-04-16T14:48:06.395Z,53.97
2023-04-16T14:50:38.027Z,56.00
2023-04-16T14:53:06.204Z,35.90
2023-04-16T14:55:33.875Z,38.03
2023-04-16T14:58:04.337Z,25.53
2023-04-16T15:00:31.985Z,18.00
2023-04-16T15:02:59.506Z,52.97
2023-04-16T15:05:27.254Z,53.80
2023-04-16T15:07:55.249Z,23.88
2023-04-16T15:10:22.965Z,44.60
2023-04-16T15:12:50.897Z,46.58
2023-04-16T15:15:18.373Z,35.47
2023-04-16T15:17:45.928Z,10.82
2023-04-16T15:20:13.645Z,16.80
2023-04-16T15:22:41.311Z,26.37
2023-04-16T15:25:09.197Z,11.50
2023-04-16T15:27:36.754Z,9.95
2023-04-16T15:30:04.605Z,10.75
2023-04-16T15:32:32.406Z,9.18
2023-04-16T15:35:00.540Z,12.77
2023-04-16T15:37:28.080Z,10.65
2023-04-16T15:39:55.499Z,4.00
2023-04-16T15:42:23.191Z,4.53
2023-04-16T15:44:50.945Z,4.60
2023-04-16T15:47:18.494Z,10.40
2023-04-16T15:49:46.360Z,32.50
2023-04-16T15:52:17.193Z,5.53
2023-04-16T15:54:44.813Z,7.68
2023-04-16T15:57:12.241Z,8.27
2023-04-16T15:59:39.948Z,8.03
2023-04-16T16:02:07.916Z,3.70
2023-04-16T16:04:36.005Z,11.07
2023-04-16T16:07:04.533Z,14.70
2023-04-16T16:09:32.275Z,6.38
2023-04-16T16:12:00.234Z,6.10
2023-04-16T16:14:27.845Z,17.20
2023-04-16T16:16:55.593Z,6.50
2023-04-16T16:19:23.279Z,5.85
2023-04-16T16:21:51.424Z,6.68
2023-04-16T16:24:19.482Z,4.30
2023-04-16T16:26:47.253Z,4.82
2023-04-16T16:29:14.866Z,4.78
2023-04-16T16:31:42.704Z,4.88
2023-04-16T16:34:17.150Z,6.85
2023-04-16T16:36:48.353Z,5.57
2023-04-16T16:39:16.012Z,5.97
2023-04-16T16:41:43.729Z,6.00
2023-04-16T16:44:11.604Z,5.30
2023-04-16T16:46:39.282Z,12.48
2023-04-16T16:49:09.491Z,9.30
2023-04-16T16:51:38.036Z,8.38
2023-04-16T16:54:06.537Z,5.78
2023-04-16T16:56:34.535Z,4.72
2023-04-16T16:59:03.021Z,8.55
2023-04-16T17:01:31.704Z,7.03
2023-04-16T17:03:59.385Z,4.82
2023-04-16T17:06:27.328Z,3.75
2023-04-16T17:08:54.990Z,3.30
2023-04-16T17:11:22.960Z,4.00
2023-04-16T17:13:50.736Z,3.50
2023-04-16T17:16:18.465Z,5.18
2023-04-16T17:18:46.486Z,4.53
2023-04-16T17:21:16.384Z,5.60
2023-04-16T17:23:44.389Z,5.05
2023-04-16T17:26:12.074Z,4.00
2023-04-16T17:28:39.809Z,7.13
2023-04-16T17:31:08.500Z,6.95
2023-04-16T17:33:36.497Z,6.25
2023-04-16T17:36:07.297Z,4.97
2023-04-16T17:38:35.005Z,5.53
2023-04-16T17:41:02.807Z,5.00
2023-04-16T17:43:30.839Z,5.53
2023-04-16T17:45:58.286Z,4.20
2023-04-16T17:48:26.409Z,5.60
2023-04-16T17:50:54.145Z,4.57
2023-04-16T17:53:22.182Z,4.80
2023-04-16T17:55:56.026Z,4.20
2023-04-16T17:58:26.473Z,4.30
2023-04-16T18:00:54.269Z,3.90
2023-04-16T18:03:22.247Z,3.43
2023-04-16T18:05:50.518Z,3.20
2023-04-16T18:08:18.213Z,3.33
2023-04-16T18:10:45.965Z,3.50
2023-04-16T18:13:13.833Z,3.42
2023-04-16T18:15:41.785Z,3.90
2023-04-16T18:18:09.251Z,5.45
2023-04-16T18:20:37.522Z,4.18
2023-04-16T18:23:05.383Z,3.63
2023-04-16T18:25:35.227Z,4.03
2023-04-16T18:28:05.126Z,4.57
2023-04-16T18:30:33.789Z,5.30
2023-04-16T18:33:19.502Z,3.50
2023-04-16T18:35:49.878Z,3.17
2023-04-16T18:38:17.560Z,3.30
2023-04-16T18:40:47.022Z,3.63
2023-04-16T18:43:14.728Z,3.28
2023-04-16T18:45:42.362Z,2.63
2023-04-16T18:48:10.690Z,2.90
2023-04-16T18:50:38.379Z,2.10
2023-04-16T18:53:06.099Z,1.97
2023-04-16T18:55:33.591Z,2.85
2023-04-16T18:58:02.393Z,2.92
2023-04-16T19:00:30.260Z,2.55
2023-04-16T19:02:58.053Z,2.53
2023-04-16T19:05:27.687Z,2.37
2023-04-16T19:07:55.632Z,2.00
2023-04-16T19:10:26.566Z,2.42
2023-04-16T19:12:57.235Z,2.78
2023-04-16T19:15:25.087Z,2.40
2023-04-16T19:17:52.940Z,2.10
2023-04-16T19:20:21.028Z,2.33
2023-04-16T19:22:48.761Z,2.75
2023-04-16T19:25:16.682Z,2.30
2023-04-16T19:27:44.444Z,2.47
2023-04-16T19:30:12.193Z,2.43
2023-04-16T19:32:40.315Z,2.30
2023-04-16T19:35:08.180Z,2.30
2023-04-16T19:37:36.115Z,1.90
2023-04-16T19:40:05.839Z,2.00
2023-04-16T19:42:33.957Z,2.40
2023-04-16T19:45:01.800Z,1.95
2023-04-16T19:47:29.543Z,1.90
2023-04-16T19:49:57.114Z,2.00
2023-04-16T19:52:25.005Z,2.00
2023-04-16T19:54:52.949Z,1.70
2023-04-16T19:57:20.679Z,1.90
2023-04-16T19:59:48.439Z,1.92
2023-04-16T20:02:17.703Z,1.67
2023-04-16T20:04:48.035Z,1.88
2023-04-16T20:07:15.626Z,2.00
2023-04-16T20:09:44.898Z,2.15
2023-04-16T20:12:12.700Z,2.50
2023-04-16T20:14:41.898Z,2.65
2023-04-16T20:17:10.137Z,2.30
2023-04-16T20:19:38.467Z,2.20
2023-04-16T20:22:06.614Z,2.30
2023-04-16T20:24:34.422Z,2.15
2023-04-16T20:27:02.088Z,2.00
2023-04-16T20:29:30.950Z,2.10
2023-04-16T20:31:58.611Z,2.40
2023-04-16T20:34:27.147Z,2.33
2023-04-16T20:36:54.957Z,1.95
2023-04-16T20:39:22.738Z,2.28
2023-04-16T20:41:57.059Z,2.45
2023-04-16T20:44:33.144Z,2.30
2023-04-16T20:47:00.793Z,1.80
2023-04-16T20:49:30.361Z,2.05
2023-04-16T20:51:58.117Z,2.42
2023-04-16T20:54:25.752Z,2.25
2023-04-16T20:56:53.208Z,2.57
2023-04-16T20:59:20.781Z,2.10
2023-04-16T21:01:48.932Z,2.33
2023-04-16T21:06:44.133Z,2.42
2023-04-16T21:09:11.930Z,2.77
2023-04-16T21:11:39.516Z,3.05
2023-04-16T21:14:07.030Z,2.53
2023-04-16T21:16:34.506Z,2.58
2023-04-16T21:19:02.061Z,2.83
2023-04-16T21:21:29.805Z,2.70
2023-04-16T21:23:57.248Z,2.70
2023-04-16T21:26:24.618Z,2.45
2023-04-16T21:28:53.309Z,2.85
2023-04-16T21:31:22.556Z,3.00
2023-04-16T21:33:49.946Z,2.80
2023-04-16T21:36:17.423Z,2.50
2023-04-16T21:38:45.428Z,2.90
2023-04-16T21:41:12.847Z,2.47
2023-04-16T21:43:40.252Z,2.80
2023-04-16T21:46:07.602Z,3.10
2023-04-16T21:48:35.050Z,2.10
2023-04-16T21:51:06.816Z,2.65
2023-04-16T21:53:34.569Z,2.50
2023-04-16T21:56:02.083Z,2.40
2023-04-16T21:58:29.510Z,2.57
2023-04-16T22:00:57.288Z,2.67
2023-04-16T22:03:28.172Z,2.10
2023-04-16T22:06:02.186Z,2.00
2023-04-16T22:08:30.205Z,2.47
2023-04-16T22:10:59.155Z,2.03
2023-04-16T22:13:26.582Z,2.42
2023-04-16T22:15:54.336Z,2.38
2023-04-16T22:18:22.040Z,2.42
2023-04-16T22:20:51.000Z,2.72
2023-04-16T22:23:18.462Z,2.63
2023-04-16T22:25:45.873Z,2.42
2023-04-16T22:28:13.293Z,2.30
2023-04-16T22:30:40.748Z,2.63
2023-04-16T22:33:08.234Z,2.00
2023-04-16T22:35:36.121Z,2.20
2023-04-16T22:38:03.660Z,2.05
2023-04-16T22:40:31.949Z,2.25
2023-04-16T22:42:59.595Z,2.15
2023-04-16T22:45:27.382Z,1.38
2023-04-16T22:47:54.862Z,2.53
2023-04-16T22:50:23.267Z,2.17
2023-04-16T22:52:50.668Z,2.25
2023-04-16T22:55:18.172Z,1.95
2023-04-16T22:57:45.968Z,1.90
2023-04-16T23:00:17.845Z,2.17
2023-04-16T23:02:45.720Z,2.20
2023-04-16T23:05:13.225Z,2.00
2023-04-16T23:07:40.585Z,1.98
2023-04-16T23:10:08.743Z,2.20
2023-04-16T23:12:40.185Z,2.20
2023-04-16T23:15:07.889Z,2.45
2023-04-16T23:17:35.533Z,1.70
2023-04-16T23:20:05.381Z,1.80
2023-04-16T23:22:32.884Z,1.80
2023-04-16T23:25:00.261Z,1.60
2023-04-16T23:27:28.156Z,2.05
2023-04-16T23:29:55.755Z,1.50
2023-04-16T23:32:23.380Z,1.60
2023-04-16T23:34:51.081Z,2.00
2023-04-16T23:37:18.559Z,1.60
2023-04-16T23:39:46.042Z,1.55
2023-04-16T23:42:14.522Z,1.63
2023-04-16T23:44:41.912Z,1.70
2023-04-16T23:47:09.385Z,1.23
2023-04-16T23:49:37.304Z,1.70
2023-04-16T23:52:04.953Z,1.40
2023-04-16T23:54:32.407Z,1.58
2023-04-16T23:56:59.787Z,2.20
2023-04-16T23:59:27.249Z,1.60
